sensor_id;sensor_type;location;lat;lon;timestamp;temperature;humidity
29243;DHT22;21110;48.036;15.780;2023-02-28T00:00:49;23.30;36.30
29243;DHT22;21110;48.036;15.780;2023-02-28T00:03:15;23.30;36.20
29243;DHT22;21110;48.036;15.780;2023-02-28T00:05:41;23.30;36.40
29243;DHT22;21110;48.036;15.780;2023-02-28T00:08:07;23.30;36.40
29243;DHT22;21110;48.036;15.780;2023-02-28T00:10:33;23.30;36.30
29243;DHT22;21110;48.036;15.780;2023-02-28T00:13:02;23.30;36.50
29243;DHT22;21110;48.036;15.780;2023-02-28T00:15:28;23.30;36.50
29243;DHT22;21110;48.036;15.780;2023-02-28T00:17:54;23.20;36.60
29243;DHT22;21110;48.036;15.780;2023-02-28T00:20:20;23.20;36.80
29243;DHT22;21110;48.036;15.780;2023-02-28T00:22:48;23.10;36.80
29243;DHT22;21110;48.036;15.780;2023-02-28T00:25:16;23.10;36.90
29243;DHT22;21110;48.036;15.780;2023-02-28T00:27:43;23.10;36.90
29243;DHT22;21110;48.036;15.780;2023-02-28T00:30:12;23.10;37.00
29243;DHT22;21110;48.036;15.780;2023-02-28T00:32:38;23.00;36.90
29243;DHT22;21110;48.036;15.780;2023-02-28T00:35:05;23.10;37.10
29243;DHT22;21110;48.036;15.780;2023-02-28T00:37:31;23.00;37.10
29243;DHT22;21110;48.036;15.780;2023-02-28T00:39:57;23.00;37.00
29243;DHT22;21110;48.036;15.780;2023-02-28T00:42:23;23.00;37.10
29243;DHT22;21110;48.036;15.780;2023-02-28T00:44:49;23.00;37.10
29243;DHT22;21110;48.036;15.780;2023-02-28T00:47:15;23.00;37.10
29243;DHT22;21110;48.036;15.780;2023-02-28T00:49:41;23.00;37.20
29243;DHT22;21110;48.036;15.780;2023-02-28T00:52:06;22.90;37.20
29243;DHT22;21110;48.036;15.780;2023-02-28T00:54:32;23.00;37.30
29243;DHT22;21110;48.036;15.780;2023-02-28T00:56:58;23.00;37.30
29243;DHT22;21110;48.036;15.780;2023-02-28T00:59:24;23.00;37.30
29243;DHT22;21110;48.036;15.780;2023-02-28T01:01:50;23.10;37.20
29243;DHT22;21110;48.036;15.780;2023-02-28T01:04:15;23.10;37.00
29243;DHT22;21110;48.036;15.780;2023-02-28T01:06:41;23.10;37.10
29243;DHT22;21110;48.036;15.780;2023-02-28T01:09:07;23.10;37.10
29243;DHT22;21110;48.036;15.780;2023-02-28T01:11:34;23.10;37.20
29243;DHT22;21110;48.036;15.780;2023-02-28T01:13:59;23.10;37.10
29243;DHT22;21110;48.036;15.780;2023-02-28T01:16:25;23.10;37.10
29243;DHT22;21110;48.036;15.780;2023-02-28T01:18:51;23.10;37.00
29243;DHT22;21110;48.036;15.780;2023-02-28T01:21:19;23.10;37.10
29243;DHT22;21110;48.036;15.780;2023-02-28T01:23:46;23.10;37.20
29243;DHT22;21110;48.036;15.780;2023-02-28T01:28:42;23.10;37.20
29243;DHT22;21110;48.036;15.780;2023-02-28T01:31:08;23.10;37.30
29243;DHT22;21110;48.036;15.780;2023-02-28T01:33:35;23.00;37.30
29243;DHT22;21110;48.036;15.780;2023-02-28T01:36:23;23.10;37.30
29243;DHT22;21110;48.036;15.780;2023-02-28T01:38:47;23.10;37.40
29243;DHT22;21110;48.036;15.780;2023-02-28T01:41:20;23.10;37.40
29243;DHT22;21110;48.036;15.780;2023-02-28T01:46:13;23.10;37.80
29243;DHT22;21110;48.036;15.780;2023-02-28T01:48:54;23.10;37.70
29243;DHT22;21110;48.036;15.780;2023-02-28T01:51:37;23.00;37.90
29243;DHT22;21110;48.036;15.780;2023-02-28T01:54:11;22.90;37.90
29243;DHT22;21110;48.036;15.780;2023-02-28T01:56:45;22.90;38.00
29243;DHT22;21110;48.036;15.780;2023-02-28T01:59:14;22.80;38.00
29243;DHT22;21110;48.036;15.780;2023-02-28T02:01:45;22.80;38.20
29243;DHT22;21110;48.036;15.780;2023-02-28T02:04:11;22.80;38.00
29243;DHT22;21110;48.036;15.780;2023-02-28T02:06:44;22.80;38.00
29243;DHT22;21110;48.036;15.780;2023-02-28T02:09:12;22.80;38.00
29243;DHT22;21110;48.036;15.780;2023-02-28T02:11:40;22.80;37.90
29243;DHT22;21110;48.036;15.780;2023-02-28T02:14:18;22.90;37.90
29243;DHT22;21110;48.036;15.780;2023-02-28T02:20:13;22.80;37.90
29243;DHT22;21110;48.036;15.780;2023-02-28T02:22:59;22.80;38.20
29243;DHT22;21110;48.036;15.780;2023-02-28T02:25:44;22.70;38.20
29243;DHT22;21110;48.036;15.780;2023-02-28T02:36:14;22.70;38.50
29243;DHT22;21110;48.036;15.780;2023-02-28T02:44:23;22.60;38.40
29243;DHT22;21110;48.036;15.780;2023-02-28T02:46:54;22.60;38.50
29243;DHT22;21110;48.036;15.780;2023-02-28T02:49:29;22.60;38.60
29243;DHT22;21110;48.036;15.780;2023-02-28T02:51:57;22.60;38.60
29243;DHT22;21110;48.036;15.780;2023-02-28T02:54:27;22.60;38.60
29243;DHT22;21110;48.036;15.780;2023-02-28T02:57:00;22.60;38.60
29243;DHT22;21110;48.036;15.780;2023-02-28T02:59:31;22.60;38.60
29243;DHT22;21110;48.036;15.780;2023-02-28T03:02:00;22.50;38.60
29243;DHT22;21110;48.036;15.780;2023-02-28T03:04:34;22.50;38.60
29243;DHT22;21110;48.036;15.780;2023-02-28T03:07:01;22.50;38.80
29243;DHT22;21110;48.036;15.780;2023-02-28T03:09:27;22.40;38.80
29243;DHT22;21110;48.036;15.780;2023-02-28T03:11:55;22.50;38.80
29243;DHT22;21110;48.036;15.780;2023-02-28T03:22:08;22.40;38.90
29243;DHT22;21110;48.036;15.780;2023-02-28T03:29:51;22.40;38.90
29243;DHT22;21110;48.036;15.780;2023-02-28T03:33:17;22.40;38.90
29243;DHT22;21110;48.036;15.780;2023-02-28T03:35:31;22.40;38.90
29243;DHT22;21110;48.036;15.780;2023-02-28T03:41:06;22.40;38.90
29243;DHT22;21110;48.036;15.780;2023-02-28T03:43:35;22.40;38.90
29243;DHT22;21110;48.036;15.780;2023-02-28T03:46:07;22.30;38.80
29243;DHT22;21110;48.036;15.780;2023-02-28T03:51:09;22.40;38.90
29243;DHT22;21110;48.036;15.780;2023-02-28T03:53:49;22.40;38.90
29243;DHT22;21110;48.036;15.780;2023-02-28T03:56:19;22.40;38.90
29243;DHT22;21110;48.036;15.780;2023-02-28T03:58:58;22.40;38.90
29243;DHT22;21110;48.036;15.780;2023-02-28T04:01:41;22.40;38.90
29243;DHT22;21110;48.036;15.780;2023-02-28T04:04:09;22.40;38.90
29243;DHT22;21110;48.036;15.780;2023-02-28T04:06:35;22.40;38.90
29243;DHT22;21110;48.036;15.780;2023-02-28T04:09:02;22.40;38.90
29243;DHT22;21110;48.036;15.780;2023-02-28T04:14:00;22.50;39.00
29243;DHT22;21110;48.036;15.780;2023-02-28T04:16:28;22.30;39.20
29243;DHT22;21110;48.036;15.780;2023-02-28T04:18:54;22.40;39.20
29243;DHT22;21110;48.036;15.780;2023-02-28T04:22:09;22.30;39.20
29243;DHT22;21110;48.036;15.780;2023-02-28T04:24:28;22.30;39.30
29243;DHT22;21110;48.036;15.780;2023-02-28T04:26:55;22.30;39.10
29243;DHT22;21110;48.036;15.780;2023-02-28T04:29:24;22.30;39.40
29243;DHT22;21110;48.036;15.780;2023-02-28T04:31:50;22.20;39.30
29243;DHT22;21110;48.036;15.780;2023-02-28T04:34:16;22.20;39.50
29243;DHT22;21110;48.036;15.780;2023-02-28T04:36:42;22.20;39.40
29243;DHT22;21110;48.036;15.780;2023-02-28T04:39:08;22.10;39.40
29243;DHT22;21110;48.036;15.780;2023-02-28T04:41:35;22.20;39.60
29243;DHT22;21110;48.036;15.780;2023-02-28T04:44:00;22.30;39.50
29243;DHT22;21110;48.036;15.780;2023-02-28T04:46:26;22.30;39.50
29243;DHT22;21110;48.036;15.780;2023-02-28T04:48:51;22.20;39.70
29243;DHT22;21110;48.036;15.780;2023-02-28T04:51:19;22.10;39.70
29243;DHT22;21110;48.036;15.780;2023-02-28T04:53:45;22.10;39.70
29243;DHT22;21110;48.036;15.780;2023-02-28T04:56:16;22.20;39.80
29243;DHT22;21110;48.036;15.780;2023-02-28T04:58:42;22.10;39.80
29243;DHT22;21110;48.036;15.780;2023-02-28T05:01:26;22.10;39.80
29243;DHT22;21110;48.036;15.780;2023-02-28T05:03:55;22.10;39.90
29243;DHT22;21110;48.036;15.780;2023-02-28T05:06:22;22.00;39.90
29243;DHT22;21110;48.036;15.780;2023-02-28T05:08:49;22.10;40.00
29243;DHT22;21110;48.036;15.780;2023-02-28T05:11:24;22.00;39.90
29243;DHT22;21110;48.036;15.780;2023-02-28T05:13:51;22.10;39.90
29243;DHT22;21110;48.036;15.780;2023-02-28T05:16:18;22.20;39.80
29243;DHT22;21110;48.036;15.780;2023-02-28T05:18:44;22.20;39.70
29243;DHT22;21110;48.036;15.780;2023-02-28T05:21:34;22.30;39.90
29243;DHT22;21110;48.036;15.780;2023-02-28T05:24:09;22.20;39.70
29243;DHT22;21110;48.036;15.780;2023-02-28T05:26:37;22.20;39.80
29243;DHT22;21110;48.036;15.780;2023-02-28T05:29:04;22.20;39.70
29243;DHT22;21110;48.036;15.780;2023-02-28T05:31:30;22.20;39.70
29243;DHT22;21110;48.036;15.780;2023-02-28T05:33:56;22.10;39.80
29243;DHT22;21110;48.036;15.780;2023-02-28T05:36:22;22.20;38.20
29243;DHT22;21110;48.036;15.780;2023-02-28T05:38:49;22.20;37.40
29243;DHT22;21110;48.036;15.780;2023-02-28T05:41:15;22.20;36.40
29243;DHT22;21110;48.036;15.780;2023-02-28T05:43:41;22.00;35.40
29243;DHT22;21110;48.036;15.780;2023-02-28T05:46:09;21.90;34.60
29243;DHT22;21110;48.036;15.780;2023-02-28T05:48:36;21.80;34.70
29243;DHT22;21110;48.036;15.780;2023-02-28T05:51:02;21.60;34.50
29243;DHT22;21110;48.036;15.780;2023-02-28T05:53:29;21.50;37.00
29243;DHT22;21110;48.036;15.780;2023-02-28T05:55:55;21.60;37.20
29243;DHT22;21110;48.036;15.780;2023-02-28T05:58:21;21.70;37.30
29243;DHT22;21110;48.036;15.780;2023-02-28T06:00:47;21.80;37.50
29243;DHT22;21110;48.036;15.780;2023-02-28T06:03:13;21.80;37.70
29243;DHT22;21110;48.036;15.780;2023-02-28T06:05:38;21.80;37.80
29243;DHT22;21110;48.036;15.780;2023-02-28T06:08:07;21.80;37.40
29243;DHT22;21110;48.036;15.780;2023-02-28T06:10:35;21.70;37.80
29243;DHT22;21110;48.036;15.780;2023-02-28T06:13:05;21.70;38.20
29243;DHT22;21110;48.036;15.780;2023-02-28T06:15:30;21.60;38.20
29243;DHT22;21110;48.036;15.780;2023-02-28T06:17:57;21.60;38.20
29243;DHT22;21110;48.036;15.780;2023-02-28T06:20:26;21.60;38.20
29243;DHT22;21110;48.036;15.780;2023-02-28T06:22:56;21.50;38.10
29243;DHT22;21110;48.036;15.780;2023-02-28T06:25:24;21.50;38.10
29243;DHT22;21110;48.036;15.780;2023-02-28T06:27:50;21.50;38.10
29243;DHT22;21110;48.036;15.780;2023-02-28T06:30:16;21.50;38.20
29243;DHT22;21110;48.036;15.780;2023-02-28T06:32:42;21.40;38.10
29243;DHT22;21110;48.036;15.780;2023-02-28T06:35:07;21.50;38.10
29243;DHT22;21110;48.036;15.780;2023-02-28T06:37:33;21.40;38.10
29243;DHT22;21110;48.036;15.780;2023-02-28T06:39:59;21.40;38.00
29243;DHT22;21110;48.036;15.780;2023-02-28T06:42:25;21.50;38.10
29243;DHT22;21110;48.036;15.780;2023-02-28T06:44:55;21.40;38.10
29243;DHT22;21110;48.036;15.780;2023-02-28T06:47:21;21.40;38.10
29243;DHT22;21110;48.036;15.780;2023-02-28T06:49:47;21.40;38.10
29243;DHT22;21110;48.036;15.780;2023-02-28T06:52:12;21.40;38.10
29243;DHT22;21110;48.036;15.780;2023-02-28T06:54:38;21.40;38.20
29243;DHT22;21110;48.036;15.780;2023-02-28T06:57:04;21.40;38.20
29243;DHT22;21110;48.036;15.780;2023-02-28T06:59:30;21.30;38.00
29243;DHT22;21110;48.036;15.780;2023-02-28T07:01:55;21.40;38.10
29243;DHT22;21110;48.036;15.780;2023-02-28T07:04:22;21.30;38.00
29243;DHT22;21110;48.036;15.780;2023-02-28T07:06:47;21.40;38.10
29243;DHT22;21110;48.036;15.780;2023-02-28T07:09:13;21.40;38.20
29243;DHT22;21110;48.036;15.780;2023-02-28T07:11:39;21.30;38.10
29243;DHT22;21110;48.036;15.780;2023-02-28T07:14:06;21.30;38.20
29243;DHT22;21110;48.036;15.780;2023-02-28T07:16:32;21.30;38.10
29243;DHT22;21110;48.036;15.780;2023-02-28T07:18:58;21.30;38.10
29243;DHT22;21110;48.036;15.780;2023-02-28T07:21:24;21.30;38.20
29243;DHT22;21110;48.036;15.780;2023-02-28T07:23:50;21.30;38.10
29243;DHT22;21110;48.036;15.780;2023-02-28T07:26:19;21.30;38.20
29243;DHT22;21110;48.036;15.780;2023-02-28T07:28:46;21.30;38.20
29243;DHT22;21110;48.036;15.780;2023-02-28T07:31:13;21.20;38.10
29243;DHT22;21110;48.036;15.780;2023-02-28T07:33:39;21.20;38.20
29243;DHT22;21110;48.036;15.780;2023-02-28T07:36:16;21.20;38.10
29243;DHT22;21110;48.036;15.780;2023-02-28T07:38:45;21.20;38.10
29243;DHT22;21110;48.036;15.780;2023-02-28T07:41:12;21.20;38.20
29243;DHT22;21110;48.036;15.780;2023-02-28T07:43:38;21.30;38.30
29243;DHT22;21110;48.036;15.780;2023-02-28T07:46:09;21.20;38.30
29243;DHT22;21110;48.036;15.780;2023-02-28T07:48:36;21.20;38.30
29243;DHT22;21110;48.036;15.780;2023-02-28T07:51:01;21.20;38.30
29243;DHT22;21110;48.036;15.780;2023-02-28T07:53:28;21.20;38.30
29243;DHT22;21110;48.036;15.780;2023-02-28T07:55:58;21.20;38.30
29243;DHT22;21110;48.036;15.780;2023-02-28T07:58:25;21.20;38.30
29243;DHT22;21110;48.036;15.780;2023-02-28T08:00:51;21.20;38.30
29243;DHT22;21110;48.036;15.780;2023-02-28T08:03:21;21.20;38.30
29243;DHT22;21110;48.036;15.780;2023-02-28T08:05:47;21.20;38.30
29243;DHT22;21110;48.036;15.780;2023-02-28T08:08:14;21.20;38.30
29243;DHT22;21110;48.036;15.780;2023-02-28T08:10:40;21.20;38.30
29243;DHT22;21110;48.036;15.780;2023-02-28T08:13:06;21.20;38.30
29243;DHT22;21110;48.036;15.780;2023-02-28T08:15:32;21.20;38.30
29243;DHT22;21110;48.036;15.780;2023-02-28T08:17:58;21.20;38.30
29243;DHT22;21110;48.036;15.780;2023-02-28T08:20:24;21.20;38.40
29243;DHT22;21110;48.036;15.780;2023-02-28T08:22:50;21.20;38.40
29243;DHT22;21110;48.036;15.780;2023-02-28T08:25:16;21.10;38.40
29243;DHT22;21110;48.036;15.780;2023-02-28T08:27:41;21.20;38.40
29243;DHT22;21110;48.036;15.780;2023-02-28T08:30:10;21.10;38.30
29243;DHT22;21110;48.036;15.780;2023-02-28T08:32:36;21.20;38.50
29243;DHT22;21110;48.036;15.780;2023-02-28T08:35:02;21.20;38.50
29243;DHT22;21110;48.036;15.780;2023-02-28T08:37:28;21.10;38.40
29243;DHT22;21110;48.036;15.780;2023-02-28T08:39:54;21.20;38.50
29243;DHT22;21110;48.036;15.780;2023-02-28T08:42:19;21.20;38.50
29243;DHT22;21110;48.036;15.780;2023-02-28T08:44:45;21.10;38.40
29243;DHT22;21110;48.036;15.780;2023-02-28T08:47:11;21.10;38.50
29243;DHT22;21110;48.036;15.780;2023-02-28T08:49:37;21.10;38.50
29243;DHT22;21110;48.036;15.780;2023-02-28T08:52:03;21.10;38.50
29243;DHT22;21110;48.036;15.780;2023-02-28T08:54:28;21.10;38.50
29243;DHT22;21110;48.036;15.780;2023-02-28T08:56:56;21.10;38.60
29243;DHT22;21110;48.036;15.780;2023-02-28T08:59:22;21.10;38.50
29243;DHT22;21110;48.036;15.780;2023-02-28T09:01:49;21.10;38.60
29243;DHT22;21110;48.036;15.780;2023-02-28T09:04:15;21.10;38.60
29243;DHT22;21110;48.036;15.780;2023-02-28T09:06:40;21.10;38.60
29243;DHT22;21110;48.036;15.780;2023-02-28T09:09:07;21.00;38.60
29243;DHT22;21110;48.036;15.780;2023-02-28T09:11:35;21.10;38.70
29243;DHT22;21110;48.036;15.780;2023-02-28T09:14:01;21.10;38.70
29243;DHT22;21110;48.036;15.780;2023-02-28T09:16:30;21.10;38.70
29243;DHT22;21110;48.036;15.780;2023-02-28T09:18:56;21.10;38.80
29243;DHT22;21110;48.036;15.780;2023-02-28T09:21:22;21.00;38.70
29243;DHT22;21110;48.036;15.780;2023-02-28T09:23:49;21.10;38.80
29243;DHT22;21110;48.036;15.780;2023-02-28T09:26:16;21.00;38.70
29243;DHT22;21110;48.036;15.780;2023-02-28T09:28:42;21.00;38.80
29243;DHT22;21110;48.036;15.780;2023-02-28T09:31:20;21.10;38.90
29243;DHT22;21110;48.036;15.780;2023-02-28T09:33:50;21.10;38.90
29243;DHT22;21110;48.036;15.780;2023-02-28T09:36:17;21.10;38.90
29243;DHT22;21110;48.036;15.780;2023-02-28T09:38:45;21.10;39.00
29243;DHT22;21110;48.036;15.780;2023-02-28T09:41:17;21.00;38.90
29243;DHT22;21110;48.036;15.780;2023-02-28T09:43:58;21.10;39.00
29243;DHT22;21110;48.036;15.780;2023-02-28T09:49:23;21.00;38.90
29243;DHT22;21110;48.036;15.780;2023-02-28T09:52:10;21.00;38.90
29243;DHT22;21110;48.036;15.780;2023-02-28T09:54:37;21.00;39.00
29243;DHT22;21110;48.036;15.780;2023-02-28T09:57:32;21.00;39.00
29243;DHT22;21110;48.036;15.780;2023-02-28T10:00:06;21.10;39.10
29243;DHT22;21110;48.036;15.780;2023-02-28T10:05:18;21.00;39.00
29243;DHT22;21110;48.036;15.780;2023-02-28T10:16:13;21.00;39.20
29243;DHT22;21110;48.036;15.780;2023-02-28T10:19:06;21.00;39.20
29243;DHT22;21110;48.036;15.780;2023-02-28T10:21:39;21.00;39.20
29243;DHT22;21110;48.036;15.780;2023-02-28T10:24:20;21.00;39.20
29243;DHT22;21110;48.036;15.780;2023-02-28T10:26:47;21.00;39.20
29243;DHT22;21110;48.036;15.780;2023-02-28T10:29:13;21.00;39.20
29243;DHT22;21110;48.036;15.780;2023-02-28T10:31:39;21.00;39.30
29243;DHT22;21110;48.036;15.780;2023-02-28T10:34:05;21.00;39.20
29243;DHT22;21110;48.036;15.780;2023-02-28T10:36:32;21.00;39.20
29243;DHT22;21110;48.036;15.780;2023-02-28T10:38:57;21.00;39.30
29243;DHT22;21110;48.036;15.780;2023-02-28T10:41:30;21.00;39.30
29243;DHT22;21110;48.036;15.780;2023-02-28T10:44:20;21.00;39.40
29243;DHT22;21110;48.036;15.780;2023-02-28T10:46:48;21.00;39.40
29243;DHT22;21110;48.036;15.780;2023-02-28T10:49:23;20.90;39.30
29243;DHT22;21110;48.036;15.780;2023-02-28T10:51:53;20.90;39.30
29243;DHT22;21110;48.036;15.780;2023-02-28T10:54:26;20.90;39.40
29243;DHT22;21110;48.036;15.780;2023-02-28T10:57:21;20.90;39.40
29243;DHT22;21110;48.036;15.780;2023-02-28T11:00:05;20.90;39.40
29243;DHT22;21110;48.036;15.780;2023-02-28T11:02:34;20.90;39.40
29243;DHT22;21110;48.036;15.780;2023-02-28T11:05:00;21.00;39.50
29243;DHT22;21110;48.036;15.780;2023-02-28T11:07:27;21.00;39.40
29243;DHT22;21110;48.036;15.780;2023-02-28T11:09:55;21.00;39.50
29243;DHT22;21110;48.036;15.780;2023-02-28T11:12:36;21.00;39.50
29243;DHT22;21110;48.036;15.780;2023-02-28T11:15:05;20.90;39.50
29243;DHT22;21110;48.036;15.780;2023-02-28T11:17:32;20.90;39.50
29243;DHT22;21110;48.036;15.780;2023-02-28T11:20:02;20.90;39.50
29243;DHT22;21110;48.036;15.780;2023-02-28T11:22:36;20.90;39.60
29243;DHT22;21110;48.036;15.780;2023-02-28T11:25:12;20.90;39.60
29243;DHT22;21110;48.036;15.780;2023-02-28T11:27:46;20.90;39.70
29243;DHT22;21110;48.036;15.780;2023-02-28T11:30:36;20.90;39.60
29243;DHT22;21110;48.036;15.780;2023-02-28T11:33:31;20.90;39.70
29243;DHT22;21110;48.036;15.780;2023-02-28T11:36:10;20.90;39.70
29243;DHT22;21110;48.036;15.780;2023-02-28T11:38:36;20.90;39.70
29243;DHT22;21110;48.036;15.780;2023-02-28T11:51:28;20.90;39.70
29243;DHT22;21110;48.036;15.780;2023-02-28T11:54:30;20.80;39.70
29243;DHT22;21110;48.036;15.780;2023-02-28T11:57:00;20.60;37.60
29243;DHT22;21110;48.036;15.780;2023-02-28T11:59:52;20.80;39.00
29243;DHT22;21110;48.036;15.780;2023-02-28T12:04:59;21.10;39.00
29243;DHT22;21110;48.036;15.780;2023-02-28T12:07:36;21.10;38.90
29243;DHT22;21110;48.036;15.780;2023-02-28T12:10:19;21.10;38.80
29243;DHT22;21110;48.036;15.780;2023-02-28T12:13:07;21.10;38.70
29243;DHT22;21110;48.036;15.780;2023-02-28T12:29:16;21.20;39.00
29243;DHT22;21110;48.036;15.780;2023-02-28T12:34:44;21.20;39.00
29243;DHT22;21110;48.036;15.780;2023-02-28T12:40:11;21.20;39.10
29243;DHT22;21110;48.036;15.780;2023-02-28T12:42:40;21.20;39.00
29243;DHT22;21110;48.036;15.780;2023-02-28T12:48:04;21.20;39.10
29243;DHT22;21110;48.036;15.780;2023-02-28T12:50:32;21.20;39.10
29243;DHT22;21110;48.036;15.780;2023-02-28T12:56:08;21.20;39.10
29243;DHT22;21110;48.036;15.780;2023-02-28T13:04:04;21.20;39.10
29243;DHT22;21110;48.036;15.780;2023-02-28T13:09:22;21.20;39.10
29243;DHT22;21110;48.036;15.780;2023-02-28T13:11:49;21.20;39.10
29243;DHT22;21110;48.036;15.780;2023-02-28T13:14:49;21.20;39.20
29243;DHT22;21110;48.036;15.780;2023-02-28T13:17:22;21.20;39.30
29243;DHT22;21110;48.036;15.780;2023-02-28T13:24:52;21.00;39.40
29243;DHT22;21110;48.036;15.780;2023-02-28T13:27:22;21.00;39.40
29243;DHT22;21110;48.036;15.780;2023-02-28T13:29:50;20.90;39.40
29243;DHT22;21110;48.036;15.780;2023-02-28T13:47:45;20.80;39.90
29243;DHT22;21110;48.036;15.780;2023-02-28T13:56:03;20.70;40.20
29243;DHT22;21110;48.036;15.780;2023-02-28T13:59:04;20.70;40.30
29243;DHT22;21110;48.036;15.780;2023-02-28T14:06:36;20.60;40.30
29243;DHT22;21110;48.036;15.780;2023-02-28T14:09:15;20.60;40.40
29243;DHT22;21110;48.036;15.780;2023-02-28T14:11:44;20.60;40.40
29243;DHT22;21110;48.036;15.780;2023-02-28T14:16:58;20.60;40.40
29243;DHT22;21110;48.036;15.780;2023-02-28T14:19:26;20.60;40.40
29243;DHT22;21110;48.036;15.780;2023-02-28T14:38:24;20.70;40.20
29243;DHT22;21110;48.036;15.780;2023-02-28T14:40:56;20.80;40.30
29243;DHT22;21110;48.036;15.780;2023-02-28T14:43:25;20.80;40.10
29243;DHT22;21110;48.036;15.780;2023-02-28T14:45:54;21.10;39.90
29243;DHT22;21110;48.036;15.780;2023-02-28T14:48:21;21.00;40.30
29243;DHT22;21110;48.036;15.780;2023-02-28T14:50:51;21.00;39.90
29243;DHT22;21110;48.036;15.780;2023-02-28T14:53:19;20.90;40.00
29243;DHT22;21110;48.036;15.780;2023-02-28T14:55:47;20.80;40.10
29243;DHT22;21110;48.036;15.780;2023-02-28T14:58:23;20.70;40.20
29243;DHT22;21110;48.036;15.780;2023-02-28T15:00:51;20.60;40.30
29243;DHT22;21110;48.036;15.780;2023-02-28T15:06:25;20.50;40.20
29243;DHT22;21110;48.036;15.780;2023-02-28T15:11:33;20.50;40.30
29243;DHT22;21110;48.036;15.780;2023-02-28T15:14:00;20.50;40.30
29243;DHT22;21110;48.036;15.780;2023-02-28T15:16:36;20.50;40.30
29243;DHT22;21110;48.036;15.780;2023-02-28T15:19:23;20.50;40.40
29243;DHT22;21110;48.036;15.780;2023-02-28T15:22:04;20.50;40.30
29243;DHT22;21110;48.036;15.780;2023-02-28T15:24:46;20.40;40.30
29243;DHT22;21110;48.036;15.780;2023-02-28T15:29:49;20.40;40.30
29243;DHT22;21110;48.036;15.780;2023-02-28T15:32:32;20.40;40.30
29243;DHT22;21110;48.036;15.780;2023-02-28T15:34:59;20.40;40.40
29243;DHT22;21110;48.036;15.780;2023-02-28T15:37:58;20.40;40.40
29243;DHT22;21110;48.036;15.780;2023-02-28T15:40:43;20.30;40.30
29243;DHT22;21110;48.036;15.780;2023-02-28T15:46:12;20.30;40.30
29243;DHT22;21110;48.036;15.780;2023-02-28T15:48:55;20.30;40.30
29243;DHT22;21110;48.036;15.780;2023-02-28T15:51:28;20.30;40.40
29243;DHT22;21110;48.036;15.780;2023-02-28T15:53:58;20.30;40.40
29243;DHT22;21110;48.036;15.780;2023-02-28T15:59:05;20.30;40.40
29243;DHT22;21110;48.036;15.780;2023-02-28T16:01:33;20.20;40.30
29243;DHT22;21110;48.036;15.780;2023-02-28T16:04:02;20.30;40.40
29243;DHT22;21110;48.036;15.780;2023-02-28T16:09:06;20.20;40.30
29243;DHT22;21110;48.036;15.780;2023-02-28T16:11:37;20.20;40.30
29243;DHT22;21110;48.036;15.780;2023-02-28T16:14:04;20.20;40.30
29243;DHT22;21110;48.036;15.780;2023-02-28T16:16:31;20.20;40.30
29243;DHT22;21110;48.036;15.780;2023-02-28T16:18:57;20.20;40.40
29243;DHT22;21110;48.036;15.780;2023-02-28T16:21:24;20.10;40.30
29243;DHT22;21110;48.036;15.780;2023-02-28T16:23:50;20.10;40.40
29243;DHT22;21110;48.036;15.780;2023-02-28T16:26:23;20.10;40.40
29243;DHT22;21110;48.036;15.780;2023-02-28T16:28:49;20.20;40.50
29243;DHT22;21110;48.036;15.780;2023-02-28T16:31:16;20.10;40.40
29243;DHT22;21110;48.036;15.780;2023-02-28T16:33:44;20.10;40.50
29243;DHT22;21110;48.036;15.780;2023-02-28T16:36:15;20.10;40.50
29243;DHT22;21110;48.036;15.780;2023-02-28T16:38:41;20.10;40.50
29243;DHT22;21110;48.036;15.780;2023-02-28T16:41:18;20.10;40.50
29243;DHT22;21110;48.036;15.780;2023-02-28T16:43:46;20.10;40.50
29243;DHT22;21110;48.036;15.780;2023-02-28T16:46:12;20.10;40.50
29243;DHT22;21110;48.036;15.780;2023-02-28T16:48:38;20.10;40.50
29243;DHT22;21110;48.036;15.780;2023-02-28T16:51:06;20.10;40.50
29243;DHT22;21110;48.036;15.780;2023-02-28T16:53:33;20.10;40.50
29243;DHT22;21110;48.036;15.780;2023-02-28T16:55:59;20.10;40.50
29243;DHT22;21110;48.036;15.780;2023-02-28T16:58:27;20.00;40.50
29243;DHT22;21110;48.036;15.780;2023-02-28T17:00:53;20.00;40.50
29243;DHT22;21110;48.036;15.780;2023-02-28T17:03:27;20.00;40.50
29243;DHT22;21110;48.036;15.780;2023-02-28T17:05:53;20.00;40.50
29243;DHT22;21110;48.036;15.780;2023-02-28T17:08:19;20.00;40.60
29243;DHT22;21110;48.036;15.780;2023-02-28T17:10:44;20.00;40.50
29243;DHT22;21110;48.036;15.780;2023-02-28T17:13:10;20.00;40.60
29243;DHT22;21110;48.036;15.780;2023-02-28T17:15:37;20.00;40.60
29243;DHT22;21110;48.036;15.780;2023-02-28T17:18:03;20.00;40.60
29243;DHT22;21110;48.036;15.780;2023-02-28T17:20:29;20.00;40.10
29243;DHT22;21110;48.036;15.780;2023-02-28T17:22:56;19.90;39.90
29243;DHT22;21110;48.036;15.780;2023-02-28T17:25:22;19.90;39.80
29243;DHT22;21110;48.036;15.780;2023-02-28T17:27:48;19.90;39.80
29243;DHT22;21110;48.036;15.780;2023-02-28T17:30:18;19.90;39.90
29243;DHT22;21110;48.036;15.780;2023-02-28T17:32:45;19.90;39.90
29243;DHT22;21110;48.036;15.780;2023-02-28T17:35:12;19.90;40.00
29243;DHT22;21110;48.036;15.780;2023-02-28T17:37:37;19.90;40.00
29243;DHT22;21110;48.036;15.780;2023-02-28T17:40:04;19.90;39.90
29243;DHT22;21110;48.036;15.780;2023-02-28T17:42:30;20.00;39.90
29243;DHT22;21110;48.036;15.780;2023-02-28T17:44:55;20.00;40.00
29243;DHT22;21110;48.036;15.780;2023-02-28T17:47:21;19.90;39.90
29243;DHT22;21110;48.036;15.780;2023-02-28T17:49:47;19.90;39.90
29243;DHT22;21110;48.036;15.780;2023-02-28T17:52:13;19.90;40.00
29243;DHT22;21110;48.036;15.780;2023-02-28T17:54:38;19.90;39.90
29243;DHT22;21110;48.036;15.780;2023-02-28T17:57:04;19.80;39.90
29243;DHT22;21110;48.036;15.780;2023-02-28T17:59:29;19.80;39.90
29243;DHT22;21110;48.036;15.780;2023-02-28T18:02:02;19.80;39.90
29243;DHT22;21110;48.036;15.780;2023-02-28T18:04:29;19.80;39.90
29243;DHT22;21110;48.036;15.780;2023-02-28T18:06:55;19.80;39.90
29243;DHT22;21110;48.036;15.780;2023-02-28T18:09:25;19.80;39.90
29243;DHT22;21110;48.036;15.780;2023-02-28T18:11:53;19.90;40.00
29243;DHT22;21110;48.036;15.780;2023-02-28T18:14:20;19.90;40.10
29243;DHT22;21110;48.036;15.780;2023-02-28T18:16:48;19.90;39.90
29243;DHT22;21110;48.036;15.780;2023-02-28T18:19:14;19.90;39.90
29243;DHT22;21110;48.036;15.780;2023-02-28T18:21:46;19.80;39.90